createdAt,value
2022-12-17T00:00:07.858Z,0.06
2022-12-17T00:02:10.939Z,0.06
2022-12-17T00:04:08.397Z,0.06
2022-12-17T00:06:07.567Z,0.06
2022-12-17T00:08:07.504Z,0.06
2022-12-17T00:10:12.615Z,0.06
2022-12-17T00:12:07.472Z,0.06
2022-12-17T00:14:07.452Z,0.06
2022-12-17T00:16:07.739Z,0.06
2022-12-17T00:18:08.057Z,0.06
2022-12-17T00:20:07.755Z,0.06
2022-12-17T00:22:07.567Z,0.06
2022-12-17T00:24:07.780Z,0.06
2022-12-17T00:26:07.634Z,0.06
2022-12-17T00:28:07.880Z,0.06
2022-12-17T00:30:06.607Z,0.06
2022-12-17T00:32:07.720Z,0.06
2022-12-17T00:34:07.663Z,0.06
2022-12-17T00:36:07.456Z,0.06
2022-12-17T00:38:07.670Z,0.06
2022-12-17T00:40:10.655Z,0.06
2022-12-17T00:42:07.465Z,0.06
2022-12-17T00:44:07.665Z,0.06
2022-12-17T00:46:06.249Z,0.06
2022-12-17T00:48:08.059Z,0.06
2022-12-17T00:50:07.558Z,0.06
2022-12-17T00:52:05.220Z,0.06
2022-12-17T00:54:06.826Z,0.06
2022-12-17T00:56:08.169Z,0.06
2022-12-17T00:58:07.483Z,0.4
2022-12-17T01:00:07.456Z,0.4
2022-12-17T01:02:10.485Z,0.4
2022-12-17T01:04:08.012Z,0.09
2022-12-17T01:06:07.697Z,0.09
2022-12-17T01:08:07.654Z,0.09
2022-12-17T01:10:07.291Z,0.09
2022-12-17T01:12:07.975Z,0.09
2022-12-17T01:14:07.757Z,0.09
2022-12-17T01:16:08.054Z,0.09
2022-12-17T01:18:07.626Z,0.09
2022-12-17T01:20:07.741Z,0.09
2022-12-17T01:22:07.670Z,0.09
2022-12-17T01:24:07.471Z,0.09
2022-12-17T01:26:07.645Z,0.09
2022-12-17T01:28:07.504Z,0.09
2022-12-17T01:30:05.933Z,0.09
2022-12-17T01:32:09.111Z,0.09
2022-12-17T01:34:05.944Z,0.09
2022-12-17T01:36:05.072Z,0.09
2022-12-17T01:38:05.212Z,0.09
2022-12-17T01:40:05.618Z,0.09
2022-12-17T01:42:08.056Z,0.09
2022-12-17T01:44:05.118Z,0.09
2022-12-17T01:46:05.720Z,0.09
2022-12-17T01:48:07.929Z,0.09
2022-12-17T01:50:06.226Z,0.09
2022-12-17T01:52:05.405Z,0.09
2022-12-17T01:54:07.754Z,0.09
2022-12-17T01:56:06.074Z,0.09
2022-12-17T01:58:05.511Z,0.09
2022-12-17T02:00:05.681Z,0.09
2022-12-17T02:02:09.899Z,0.09
2022-12-17T02:04:07.803Z,0.09
2022-12-17T02:06:05.541Z,0.09
2022-12-17T02:08:06.449Z,0.09
2022-12-17T02:10:05.097Z,0.09
2022-12-17T02:12:06.013Z,0.47
2022-12-17T02:14:06.078Z,0.47
2022-12-17T02:16:05.039Z,0.47
2022-12-17T02:18:07.723Z,0.47
2022-12-17T02:20:05.929Z,0.47
2022-12-17T02:22:05.084Z,0.47
2022-12-17T02:24:07.866Z,0.47
2022-12-17T02:26:06.001Z,0.47
2022-12-17T02:28:05.336Z,0.47
2022-12-17T02:30:07.901Z,0.47
2022-12-17T02:32:06.516Z,0.47
2022-12-17T02:34:05.829Z,0.47
2022-12-17T02:36:08.037Z,0.47
2022-12-17T02:38:06.163Z,0.47
2022-12-17T02:40:06.643Z,0.47
2022-12-17T02:42:05.807Z,0.47
2022-12-17T02:44:06.494Z,0.47
2022-12-17T02:46:05.737Z,0.47
2022-12-17T02:48:06.300Z,0.47
2022-12-17T02:50:06.129Z,0.47
2022-12-17T02:52:05.471Z,0.47
2022-12-17T02:54:07.683Z,0.47
2022-12-17T02:56:05.202Z,0.47
2022-12-17T02:58:07.223Z,0.47
2022-12-17T03:00:05.435Z,0.47
2022-12-17T03:02:10.043Z,0.47
2022-12-17T03:04:12.969Z,0.47
2022-12-17T03:06:39.401Z,0.47
2022-12-17T03:08:05.802Z,0.47
2022-12-17T03:10:05.236Z,0.47
2022-12-17T03:12:05.829Z,0.47
2022-12-17T03:14:05.789Z,0.47
2022-12-17T03:16:05.811Z,0.47
2022-12-17T03:18:08.748Z,0.56
2022-12-17T03:20:06.337Z,0.56
2022-12-17T03:22:05.295Z,0.56
2022-12-17T03:24:06.004Z,0.09
2022-12-17T03:26:05.354Z,0.09
2022-12-17T03:28:05.627Z,0.09
2022-12-17T03:30:05.783Z,0.07
2022-12-17T03:32:08.697Z,0.07
2022-12-17T03:34:05.899Z,0.07
2022-12-17T03:36:05.805Z,0.07
2022-12-17T03:38:06.159Z,0.07
2022-12-17T03:40:05.852Z,0.07
2022-12-17T03:42:05.324Z,0.07
2022-12-17T03:44:06.757Z,0.07
2022-12-17T03:46:05.946Z,0.07
2022-12-17T03:48:05.842Z,0.07
2022-12-17T03:50:05.771Z,0.07
2022-12-17T03:52:05.974Z,0.07
2022-12-17T03:54:05.256Z,0.07
2022-12-17T03:56:05.814Z,0.07
2022-12-17T03:58:12.172Z,0.07
2022-12-17T04:00:05.155Z,0.07
2022-12-17T04:02:10.495Z,0.07
2022-12-17T04:04:08.512Z,0.07
2022-12-17T04:06:05.755Z,0.07
2022-12-17T04:08:05.394Z,0.07
2022-12-17T04:10:05.649Z,0.07
2022-12-17T04:12:06.145Z,0.07
2022-12-17T04:14:11.641Z,0.07
2022-12-17T04:16:06.060Z,0.07
2022-12-17T04:18:06.377Z,0.07
2022-12-17T04:20:05.345Z,0.07
2022-12-17T04:22:05.757Z,0.07
2022-12-17T04:24:05.099Z,0.07
2022-12-17T04:26:05.486Z,0.07
2022-12-17T04:28:06.301Z,0.07
2022-12-17T04:30:05.877Z,0.07
2022-12-17T04:32:07.197Z,0.07
2022-12-17T04:34:05.976Z,0.07
2022-12-17T04:36:06.056Z,0.07
2022-12-17T04:38:05.201Z,0.07
2022-12-17T04:40:05.651Z,0.07
2022-12-17T04:42:06.134Z,0.07
2022-12-17T04:44:12.459Z,0.07
2022-12-17T04:46:08.118Z,0.07
2022-12-17T04:48:06.641Z,0.07
2022-12-17T04:50:05.243Z,0.07
2022-12-17T04:52:05.595Z,0.07
2022-12-17T04:54:07.122Z,0.07
2022-12-17T04:56:05.359Z,0.07
2022-12-17T04:58:05.390Z,0.07
2022-12-17T05:00:05.542Z,0.07
2022-12-17T05:02:10.441Z,0.07
2022-12-17T05:04:14.562Z,0.07
2022-12-17T05:06:05.310Z,0.07
2022-12-17T05:08:05.537Z,0.07
2022-12-17T05:10:11.702Z,0.07
2022-12-17T05:12:05.306Z,0.07
2022-12-17T05:14:05.571Z,0.07
2022-12-17T05:16:11.034Z,0.07
2022-12-17T05:18:06.299Z,0.07
2022-12-17T05:20:05.411Z,0.07
2022-12-17T05:22:08.302Z,0.07
2022-12-17T05:24:06.277Z,0.07
2022-12-17T05:26:05.378Z,0.07
2022-12-17T05:28:05.526Z,0.07
2022-12-17T05:30:12.117Z,0.07
2022-12-17T05:32:06.928Z,0.07
2022-12-17T05:34:05.641Z,0.07
2022-12-17T05:36:05.779Z,0.07
2022-12-17T05:38:05.333Z,0.9
2022-12-17T05:40:12.273Z,0.9
2022-12-17T05:42:05.787Z,0.9
2022-12-17T05:44:05.841Z,0.9
2022-12-17T05:46:05.367Z,0.9
2022-12-17T05:48:06.444Z,0.9
2022-12-17T05:50:07.815Z,0.9
2022-12-17T05:52:12.344Z,0.9
2022-12-17T05:54:05.268Z,0.9
2022-12-17T05:56:05.602Z,0.9
2022-12-17T05:58:08.103Z,0.9
2022-12-17T06:00:06.857Z,0.9
2022-12-17T06:02:11.784Z,0.9
2022-12-17T06:04:07.793Z,0.9
2022-12-17T06:06:10.115Z,0.9
2022-12-17T06:08:06.402Z,0.9
2022-12-17T06:10:05.664Z,0.9
2022-12-17T06:12:13.588Z,0.9
2022-12-17T06:14:07.646Z,0.9
2022-12-17T06:16:05.722Z,0.9
2022-12-17T06:18:06.286Z,0.9
2022-12-17T06:20:10.066Z,0.9
2022-12-17T06:22:05.387Z,0.9
2022-12-17T06:24:05.990Z,0.9
2022-12-17T06:26:06.221Z,0.9
2022-12-17T06:28:05.195Z,0.9
2022-12-17T06:30:05.421Z,0.9
2022-12-17T06:32:12.206Z,0.9
2022-12-17T06:34:05.308Z,0.9
2022-12-17T06:36:05.382Z,0.9
2022-12-17T06:38:14.005Z,0.9
2022-12-17T06:40:05.381Z,0.9
2022-12-17T06:42:15.162Z,0.9
2022-12-17T06:44:08.965Z,0.9
2022-12-17T06:46:06.294Z,0.9
2022-12-17T06:48:05.961Z,0.9
2022-12-17T06:50:12.437Z,0.9
2022-12-17T06:52:05.700Z,0.9
2022-12-17T06:54:05.963Z,0.9
2022-12-17T06:56:05.363Z,0.9
2022-12-17T06:58:13.285Z,0.9
2022-12-17T07:00:05.624Z,0.9
2022-12-17T07:02:10.438Z,0.9
2022-12-17T07:04:12.119Z,0.9
2022-12-17T07:06:05.877Z,0.9
2022-12-17T07:08:05.626Z,0.9
2022-12-17T07:10:10.612Z,0.9
2022-12-17T07:12:07.776Z,0.9
2022-12-17T07:14:06.180Z,0.9
2022-12-17T07:16:05.386Z,0.9
2022-12-17T07:18:06.260Z,0.9
2022-12-17T07:20:14.542Z,0.9
2022-12-17T07:22:07.017Z,0.9
2022-12-17T07:24:05.999Z,0.9
2022-12-17T07:26:08.955Z,0.9
2022-12-17T07:28:05.685Z,0.9
2022-12-17T07:30:05.887Z,0.9
2022-12-17T07:32:12.375Z,0.9
2022-12-17T07:34:05.493Z,0.9
2022-12-17T07:36:05.860Z,0.9
2022-12-17T07:38:05.948Z,0.9
2022-12-17T07:40:05.660Z,0.9
2022-12-17T07:42:05.669Z,0.9
2022-12-17T07:44:12.090Z,0.9
2022-12-17T07:46:05.685Z,0.9
2022-12-17T07:48:06.049Z,0.9
2022-12-17T07:50:11.226Z,0.9
2022-12-17T07:52:05.944Z,0.9
2022-12-17T07:54:05.306Z,0.9
2022-12-17T07:56:11.767Z,0.9
2022-12-17T07:58:05.720Z,0.9
2022-12-17T08:00:05.050Z,0.9
2022-12-17T08:02:10.843Z,0.9
2022-12-17T08:04:08.767Z,0.9
2022-12-17T08:06:05.660Z,0.9
2022-12-17T08:08:13.030Z,0.9
2022-12-17T08:10:05.615Z,0.9
2022-12-17T08:12:05.849Z,0.9
2022-12-17T08:14:10.909Z,0.9
2022-12-17T08:16:05.276Z,0.9
2022-12-17T08:18:07.575Z,0.9
2022-12-17T08:20:08.232Z,0.9
2022-12-17T08:22:06.020Z,0.9
2022-12-17T08:24:05.481Z,0.9
2022-12-17T08:26:05.677Z,0.9
2022-12-17T08:28:15.787Z,0.9
2022-12-17T08:30:42.920Z,0.9
2022-12-17T08:32:06.379Z,0.9
2022-12-17T08:34:08.043Z,0.9
2022-12-17T08:36:11.694Z,0.9
2022-12-17T08:38:06.079Z,0.9
2022-12-17T08:40:05.531Z,0.9
2022-12-17T08:42:09.664Z,0.9
2022-12-17T08:44:08.753Z,0.9
2022-12-17T08:46:05.796Z,0.9
2022-12-17T08:48:13.385Z,0.9
2022-12-17T08:50:08.141Z,0.9
2022-12-17T08:52:05.293Z,0.9
2022-12-17T08:54:09.046Z,0.9
2022-12-17T08:56:05.618Z,0.9
2022-12-17T08:58:17.216Z,0.9
2022-12-17T09:00:07.102Z,0.9
2022-12-17T09:02:11.452Z,0.9
2022-12-17T09:04:08.313Z,0.9
2022-12-17T09:06:05.703Z,0.9
2022-12-17T09:08:09.468Z,0.9
2022-12-17T09:10:05.498Z,0.9
2022-12-17T09:12:05.681Z,0.9
2022-12-17T09:14:12.602Z,0.9
2022-12-17T09:16:05.392Z,0.9
2022-12-17T09:18:06.417Z,0.9
2022-12-17T09:20:06.826Z,0.9
2022-12-17T09:22:10.884Z,0.9
2022-12-17T09:24:05.187Z,0.9
2022-12-17T09:26:09.637Z,0.9
2022-12-17T09:28:05.642Z,0.9
2022-12-17T09:30:05.316Z,0.9
2022-12-17T09:32:11.424Z,0.9
2022-12-17T09:34:05.714Z,0.9
2022-12-17T09:36:05.205Z,0.9
2022-12-17T09:38:10.258Z,0.9
2022-12-17T09:40:07.885Z,0.9
2022-12-17T09:42:06.625Z,0.9
2022-12-17T09:44:11.813Z,0.9
2022-12-17T09:46:06.382Z,1.81
2022-12-17T09:48:05.739Z,1.81
2022-12-17T09:50:13.347Z,1.81
2022-12-17T09:52:05.969Z,0.1
2022-12-17T09:54:05.386Z,0.1
2022-12-17T09:56:09.151Z,0.08
2022-12-17T09:58:05.808Z,0.08
2022-12-17T10:00:05.418Z,0.08
2022-12-17T10:02:10.443Z,0.08
2022-12-17T10:04:09.803Z,0.07
2022-12-17T10:06:05.565Z,0.07
2022-12-17T10:08:11.829Z,0.07
2022-12-17T10:10:08.518Z,0.06
2022-12-17T10:12:08.859Z,0.06
2022-12-17T10:14:05.826Z,0.06
2022-12-17T10:16:06.323Z,0.06
2022-12-17T10:18:08.597Z,0.06
2022-12-17T10:20:05.678Z,0.06
2022-12-17T10:22:05.271Z,0.06
2022-12-17T10:24:15.448Z,0.06
2022-12-17T10:26:11.096Z,0.06
2022-12-17T10:28:05.983Z,0.06
2022-12-17T10:30:11.055Z,0.06
2022-12-17T10:32:06.529Z,0.06
2022-12-17T10:34:05.917Z,0.06
2022-12-17T10:36:13.045Z,0.06
2022-12-17T10:38:05.847Z,0.06
2022-12-17T10:40:05.187Z,0.06
2022-12-17T10:42:05.529Z,0.06
2022-12-17T10:44:05.932Z,0.06
2022-12-17T10:46:06.244Z,0.06
2022-12-17T10:48:06.065Z,0.06
2022-12-17T10:50:08.177Z,0.06
2022-12-17T10:52:06.078Z,0.06
2022-12-17T10:54:05.450Z,0.06
2022-12-17T10:56:08.391Z,0.06
2022-12-17T10:58:05.904Z,0.06
2022-12-17T11:00:05.385Z,0.06
2022-12-17T11:02:17.269Z,0.06
2022-12-17T11:04:09.849Z,0.06
2022-12-17T11:06:11.162Z,0.06
2022-12-17T11:08:12.611Z,0.06
2022-12-17T11:10:09.546Z,0.06
2022-12-17T11:12:18.732Z,0.06
2022-12-17T11:14:13.475Z,0.06
2022-12-17T11:16:05.882Z,0.06
2022-12-17T11:18:11.153Z,0.06
2022-12-17T11:20:10.488Z,0.06
2022-12-17T11:22:05.513Z,0.06
2022-12-17T11:24:05.837Z,0.06
2022-12-17T11:26:10.124Z,0.06
2022-12-17T11:28:05.579Z,0.06
2022-12-17T11:30:05.822Z,0.06
2022-12-17T11:32:12.508Z,0.06
2022-12-17T11:34:05.121Z,0.06
2022-12-17T11:36:05.522Z,0.06
2022-12-17T11:38:16.711Z,0.06
2022-12-17T11:40:05.661Z,0.06
2022-12-17T11:42:10.831Z,0.06
2022-12-17T11:44:13.544Z,0.06
2022-12-17T11:46:05.249Z,0.06
2022-12-17T11:48:10.900Z,0.06
2022-12-17T11:50:06.825Z,0.06
2022-12-17T11:52:05.674Z,0.4
2022-12-17T11:54:12.803Z,0.4
2022-12-17T11:56:05.617Z,0.4
2022-12-17T11:58:06.522Z,0.08
2022-12-17T12:00:16.144Z,0.08
2022-12-17T12:02:09.290Z,0.08
2022-12-17T12:04:07.380Z,0.07
2022-12-17T12:06:08.480Z,0.07
2022-12-17T12:08:05.872Z,0.07
2022-12-17T12:10:06.664Z,0.07
2022-12-17T12:12:06.398Z,0.06
2022-12-17T12:14:05.777Z,0.06
2022-12-17T12:16:06.273Z,0.06
2022-12-17T12:18:13.836Z,0.06
2022-12-17T12:20:07.169Z,0.06
2022-12-17T12:22:08.044Z,0.05
2022-12-17T12:24:12.203Z,0.05
2022-12-17T12:26:06.017Z,0.05
2022-12-17T12:28:06.011Z,0.06
2022-12-17T12:30:07.369Z,0.06
2022-12-17T12:32:06.487Z,0.06
2022-12-17T12:34:07.053Z,0.05
2022-12-17T12:36:05.705Z,0.05
2022-12-17T12:38:05.730Z,0.05
2022-12-17T12:40:06.517Z,0.05
2022-12-17T12:42:05.711Z,0.05
2022-12-17T12:44:06.007Z,0.05
2022-12-17T12:46:09.011Z,0.05
2022-12-17T12:48:07.146Z,0.05
2022-12-17T12:50:06.531Z,0.05
2022-12-17T12:52:08.298Z,0.05
2022-12-17T12:54:05.412Z,0.05
2022-12-17T12:56:05.850Z,0.05
2022-12-17T12:58:08.080Z,0.05
2022-12-17T13:00:07.318Z,0.05
2022-12-17T13:02:13.097Z,0.05
2022-12-17T13:04:14.737Z,0.05
2022-12-17T13:06:05.601Z,0.05
2022-12-17T13:08:05.726Z,0.05
2022-12-17T13:10:09.259Z,0.05
2022-12-17T13:12:05.398Z,0.05
2022-12-17T13:14:05.626Z,0.05
2022-12-17T13:16:07.440Z,0.05
2022-12-17T13:18:06.648Z,0.05
2022-12-17T13:20:06.358Z,0.05
2022-12-17T13:22:05.517Z,0.05
2022-12-17T13:24:05.945Z,0.05
2022-12-17T13:26:06.184Z,0.05
2022-12-17T13:28:05.309Z,0.05
2022-12-17T13:30:08.697Z,0.05
2022-12-17T13:32:06.389Z,0.05
2022-12-17T13:34:05.517Z,0.05
2022-12-17T13:36:07.070Z,0.05
2022-12-17T13:38:05.606Z,0.05
2022-12-17T13:40:06.524Z,0.05
2022-12-17T13:42:07.003Z,0.05
2022-12-17T13:44:05.839Z,0.05
2022-12-17T13:46:08.884Z,0.05
2022-12-17T13:48:06.954Z,0.05
2022-12-17T13:50:43.797Z,0.05
2022-12-17T13:52:45.405Z,0.05
2022-12-17T13:54:10.262Z,0.05
2022-12-17T13:56:05.858Z,0.05
2022-12-17T13:58:06.080Z,0.05
2022-12-17T14:00:16.585Z,0.05
2022-12-17T14:02:09.874Z,0.05
2022-12-17T14:04:42.229Z,0.05
2022-12-17T14:06:15.853Z,0.05
2022-12-17T14:08:05.655Z,0.05
2022-12-17T14:10:06.292Z,0.05
2022-12-17T14:12:14.259Z,0.05
2022-12-17T14:14:05.820Z,0.05
2022-12-17T14:16:05.999Z,0.05
2022-12-17T14:18:10.165Z,0.05
2022-12-17T14:20:06.535Z,0.05
2022-12-17T14:22:05.796Z,0.05
2022-12-17T14:24:10.425Z,0.05
2022-12-17T14:26:05.350Z,0.05
2022-12-17T14:28:05.614Z,0.05
2022-12-17T14:30:09.181Z,0.05
2022-12-17T14:32:44.508Z,0.05
2022-12-17T14:34:05.736Z,0.05
2022-12-17T14:36:08.810Z,0.05
2022-12-17T14:38:08.645Z,0.05
2022-12-17T14:40:30.306Z,0.05
2022-12-17T14:42:06.067Z,0.05
2022-12-17T14:44:06.148Z,0.05
2022-12-17T14:46:13.046Z,0.05
2022-12-17T14:48:06.228Z,0.05
2022-12-17T14:50:07.345Z,0.05
2022-12-17T14:52:05.361Z,0.05
2022-12-17T14:54:05.745Z,0.05
2022-12-17T14:56:07.203Z,0.05
2022-12-17T14:58:05.401Z,0.05
2022-12-17T15:00:06.313Z,0.05
2022-12-17T15:02:14.479Z,0.05
2022-12-17T15:04:08.407Z,0.05
2022-12-17T15:06:05.742Z,0.05
2022-12-17T15:08:13.987Z,0.05
2022-12-17T15:10:06.593Z,0.05
2022-12-17T15:12:05.764Z,0.05
2022-12-17T15:14:08.175Z,0.05
2022-12-17T15:16:05.745Z,0.05
2022-12-17T15:18:06.377Z,0.05
2022-12-17T15:20:07.800Z,0.05
2022-12-17T15:22:05.235Z,0.05
2022-12-17T15:24:05.364Z,0.05
2022-12-17T15:26:09.618Z,0.05
2022-12-17T15:28:05.194Z,0.05
2022-12-17T15:30:06.019Z,0.05
2022-12-17T15:32:12.033Z,0.05
2022-12-17T15:34:06.114Z,0.05
2022-12-17T15:36:05.155Z,0.05
2022-12-17T15:38:10.954Z,0.05
2022-12-17T15:40:06.666Z,0.05
2022-12-17T15:42:05.979Z,0.05
2022-12-17T15:44:13.409Z,0.05
2022-12-17T15:46:05.257Z,0.05
2022-12-17T15:48:06.392Z,0.05
2022-12-17T15:50:09.858Z,0.05
2022-12-17T15:52:09.207Z,0.05
2022-12-17T15:54:05.596Z,0.05
2022-12-17T15:56:06.009Z,0.05
2022-12-17T15:58:13.161Z,0.05
2022-12-17T16:00:05.776Z,0.05
2022-12-17T16:02:09.236Z,0.05
2022-12-17T16:04:15.916Z,0.05
2022-12-17T16:06:15.835Z,0.05
2022-12-17T16:08:05.151Z,0.05
2022-12-17T16:10:11.553Z,0.05
2022-12-17T16:12:09.712Z,0.05
2022-12-17T16:14:05.998Z,0.05
2022-12-17T16:16:05.584Z,0.05
2022-12-17T16:18:08.994Z,0.05
2022-12-17T16:20:06.707Z,0.05
2022-12-17T16:22:09.731Z,0.05
2022-12-17T16:24:05.932Z,0.05
2022-12-17T16:26:05.401Z,0.05
2022-12-17T16:28:12.263Z,0.05
2022-12-17T16:30:05.499Z,0.05
2022-12-17T16:32:06.264Z,0.05
2022-12-17T16:34:09.725Z,0.05
2022-12-17T16:36:05.832Z,0.05
2022-12-17T16:38:05.335Z,0.05
2022-12-17T16:40:11.482Z,0.05
2022-12-17T16:42:06.325Z,0.05
2022-12-17T16:44:05.346Z,0.05
2022-12-17T16:46:12.013Z,0.05
2022-12-17T16:48:09.274Z,0.05
2022-12-17T16:50:06.159Z,0.05
2022-12-17T16:52:14.123Z,0.05
2022-12-17T16:54:06.008Z,0.05
2022-12-17T16:56:05.188Z,0.05
2022-12-17T16:58:10.566Z,0.05
2022-12-17T17:00:06.634Z,0.05
2022-12-17T17:02:09.740Z,0.05
2022-12-17T17:04:13.973Z,0.05
2022-12-17T17:06:06.091Z,0.05
2022-12-17T17:08:13.044Z,0.05
2022-12-17T17:10:06.252Z,0.05
2022-12-17T17:12:13.591Z,0.05
2022-12-17T17:14:05.166Z,0.05
2022-12-17T17:16:06.018Z,0.05
2022-12-17T17:18:47.189Z,0.05
2022-12-17T17:20:06.459Z,0.05
2022-12-17T17:22:05.744Z,0.05
2022-12-17T17:24:08.531Z,0.25
2022-12-17T17:26:39.506Z,0.25
2022-12-17T17:28:05.579Z,0.25
2022-12-17T17:30:14.210Z,0.07
2022-12-17T17:32:48.087Z,0.07
2022-12-17T17:34:15.128Z,0.07
2022-12-17T17:36:05.550Z,0.06
2022-12-17T17:38:08.050Z,0.06
2022-12-17T17:40:06.023Z,0.06
2022-12-17T17:42:05.559Z,0.06
2022-12-17T17:44:11.788Z,0.06
2022-12-17T17:46:05.574Z,0.06
2022-12-17T17:48:06.272Z,0.06
2022-12-17T17:50:06.383Z,0.06
2022-12-17T17:52:44.698Z,0.06
2022-12-17T17:54:14.970Z,0.06
2022-12-17T17:56:07.591Z,0.06
2022-12-17T17:58:05.537Z,0.06
2022-12-17T18:00:08.244Z,0.06
2022-12-17T18:02:09.783Z,0.06
2022-12-17T18:04:09.408Z,0.06
2022-12-17T18:06:10.927Z,0.06
2022-12-17T18:08:42.417Z,0.06
2022-12-17T18:10:06.292Z,0.06
2022-12-17T18:12:08.636Z,0.06
2022-12-17T18:14:05.718Z,0.06
2022-12-17T18:16:33.513Z,0.06
2022-12-17T18:18:12.667Z,0.06
2022-12-17T18:20:08.209Z,0.06
2022-12-17T18:22:05.740Z,0.06
2022-12-17T18:24:06.777Z,0.06
2022-12-17T18:26:11.598Z,0.06
2022-12-17T18:28:05.450Z,0.06
2022-12-17T18:30:06.353Z,0.06
2022-12-17T18:32:14.315Z,0.06
2022-12-17T18:34:06.020Z,0.06
2022-12-17T18:36:05.939Z,0.06
2022-12-17T18:38:05.755Z,0.06
2022-12-17T18:40:06.809Z,0.06
2022-12-17T18:42:12.800Z,0.06
2022-12-17T18:44:05.557Z,0.06
2022-12-17T18:46:09.035Z,0.06
2022-12-17T18:48:06.628Z,0.06
2022-12-17T18:50:06.222Z,0.06
2022-12-17T18:52:14.758Z,0.06
2022-12-17T18:54:10.238Z,0.06
2022-12-17T18:56:05.820Z,0.06
2022-12-17T18:58:43.647Z,0.06
2022-12-17T19:00:19.020Z,0.27
2022-12-17T19:02:13.609Z,0.27
2022-12-17T19:04:07.267Z,0.27
2022-12-17T19:06:10.650Z,0.27
2022-12-17T19:08:05.691Z,0.27
2022-12-17T19:10:06.454Z,0.27
2022-12-17T19:12:06.379Z,0.27
2022-12-17T19:14:05.488Z,0.27
2022-12-17T19:16:05.988Z,0.27
2022-12-17T19:18:06.675Z,0.27
2022-12-17T19:20:05.787Z,0.27
2022-12-17T19:22:05.328Z,0.27
2022-12-17T19:24:07.575Z,0.27
2022-12-17T19:26:05.946Z,0.27
2022-12-17T19:28:05.558Z,0.27
2022-12-17T19:30:12.375Z,0.27
2022-12-17T19:32:06.528Z,0.27
2022-12-17T19:34:05.984Z,0.27
2022-12-17T19:36:05.910Z,0.27
2022-12-17T19:38:10.569Z,0.27
2022-12-17T19:40:06.148Z,0.27
2022-12-17T19:42:06.102Z,0.27
2022-12-17T19:44:08.037Z,0.27
2022-12-17T19:46:06.419Z,0.27
2022-12-17T19:48:06.284Z,0.27
2022-12-17T19:50:08.058Z,0.27
2022-12-17T19:52:08.643Z,0.27
2022-12-17T19:54:08.954Z,0.27
2022-12-17T19:56:13.023Z,0.27
2022-12-17T19:58:07.893Z,0.27
2022-12-17T20:00:06.332Z,0.27
2022-12-17T20:02:09.146Z,0.27
2022-12-17T20:04:14.895Z,0.27
2022-12-17T20:06:04.955Z,0.27
2022-12-17T20:08:05.587Z,0.27
2022-12-17T20:10:09.447Z,0.27
2022-12-17T20:12:06.019Z,0.27
2022-12-17T20:14:05.911Z,0.27
2022-12-17T20:16:05.791Z,0.27
2022-12-17T20:18:07.026Z,0.27
2022-12-17T20:20:06.410Z,0.27
2022-12-17T20:22:05.427Z,0.27
2022-12-17T20:24:05.897Z,0.27
2022-12-17T20:26:12.869Z,0.27
2022-12-17T20:28:05.278Z,0.27
2022-12-17T20:30:06.200Z,0.27
2022-12-17T20:32:12.457Z,0.27
2022-12-17T20:34:05.702Z,0.27
2022-12-17T20:36:05.700Z,0.27
2022-12-17T20:38:06.031Z,0.27
2022-12-17T20:40:12.494Z,0.27
2022-12-17T20:42:05.479Z,0.27
2022-12-17T20:44:05.663Z,0.27
2022-12-17T20:46:12.663Z,0.27
2022-12-17T20:48:06.707Z,0.27
2022-12-17T20:50:05.755Z,0.27
2022-12-17T20:52:05.798Z,0.27
2022-12-17T20:54:05.458Z,0.27
2022-12-17T20:56:05.717Z,0.27
2022-12-17T20:58:05.885Z,0.27
2022-12-17T21:00:06.603Z,0.27
2022-12-17T21:02:18.583Z,0.27
2022-12-17T21:04:07.762Z,0.27
2022-12-17T21:06:05.425Z,0.27
2022-12-17T21:08:05.843Z,0.27
2022-12-17T21:10:09.493Z,0.27
2022-12-17T21:12:05.714Z,0.27
2022-12-17T21:14:06.269Z,0.27
2022-12-17T21:16:15.207Z,0.27
2022-12-17T21:18:06.537Z,0.27
2022-12-17T21:20:09.889Z,0.27
2022-12-17T21:22:12.997Z,0.27
2022-12-17T21:24:07.746Z,0.27
2022-12-17T21:26:08.732Z,0.27
2022-12-17T21:28:12.372Z,0.27
2022-12-17T21:30:05.944Z,0.27
2022-12-17T21:32:13.266Z,0.27
2022-12-17T21:34:14.241Z,0.27
2022-12-17T21:36:07.511Z,0.27
2022-12-17T21:38:22.109Z,0.27
2022-12-17T21:40:11.210Z,0.27
2022-12-17T21:42:07.681Z,0.27
2022-12-17T21:44:05.896Z,0.27
2022-12-17T21:46:08.049Z,0.27
2022-12-17T21:48:12.642Z,0.27
2022-12-17T21:50:14.061Z,0.27
2022-12-17T21:52:08.185Z,0.27
2022-12-17T21:54:08.678Z,0.27
2022-12-17T21:56:13.618Z,0.27
2022-12-17T21:58:06.240Z,0.27
2022-12-17T22:00:06.401Z,0.27
2022-12-17T22:02:17.182Z,0.27
2022-12-17T22:04:07.876Z,0.27
2022-12-17T22:06:12.923Z,0.27
2022-12-17T22:08:41.510Z,0.27
2022-12-17T22:11:30.442Z,0.27
2022-12-17T22:12:55.804Z,0.27
2022-12-17T22:14:08.472Z,0.27
2022-12-17T22:16:29.701Z,0.27
2022-12-17T22:18:07.673Z,0.27
2022-12-17T22:20:07.644Z,0.27
2022-12-17T22:22:09.244Z,0.27
2022-12-17T22:24:08.985Z,0.27
2022-12-17T22:26:15.455Z,0.27
2022-12-17T22:28:06.031Z,0.27
2022-12-17T22:30:07.688Z,0.27
2022-12-17T22:32:13.280Z,0.27
2022-12-17T22:45:23.954Z,0.27
2022-12-17T22:47:04.995Z,0.27
2022-12-17T22:48:05.934Z,0.27
2022-12-17T22:50:08.868Z,0.27
2022-12-17T22:52:53.145Z,0.27
2022-12-17T22:54:13.272Z,0.27
2022-12-17T22:56:22.959Z,0.27
2022-12-17T22:59:19.567Z,0.27
2022-12-17T23:00:13.102Z,0.27
2022-12-17T23:02:19.995Z,0.27
2022-12-17T23:04:08.630Z,0.27
2022-12-17T23:06:06.396Z,0.27
2022-12-17T23:08:06.010Z,0.27
2022-12-17T23:10:05.902Z,0.27
2022-12-17T23:12:06.180Z,0.27
2022-12-17T23:14:05.299Z,0.27
2022-12-17T23:16:05.741Z,0.27
2022-12-17T23:18:09.223Z,0.27
2022-12-17T23:20:05.320Z,0.27
2022-12-17T23:22:05.754Z,0.27
2022-12-17T23:24:12.142Z,0.27
2022-12-17T23:26:06.191Z,0.27
2022-12-17T23:28:05.377Z,0.27
2022-12-17T23:30:05.439Z,0.27
2022-12-17T23:32:06.839Z,0.27
2022-12-17T23:34:05.678Z,0.27
2022-12-17T23:36:05.920Z,0.27
2022-12-17T23:38:13.151Z,0.27
2022-12-17T23:40:05.874Z,0.27
2022-12-17T23:42:05.406Z,0.27
2022-12-17T23:44:14.076Z,0.27
2022-12-17T23:46:06.096Z,0.27
2022-12-17T23:48:05.990Z,0.27
2022-12-17T23:50:09.796Z,0.27
2022-12-17T23:52:05.893Z,0.27
2022-12-17T23:54:05.971Z,0.27
2022-12-17T23:56:06.136Z,0.27
2022-12-17T23:58:06.209Z,0.27
